Time;durP1;ratioP1;P1;durP2;ratioP2;P2;SDS_P1;SDS_P2;PMS_P1;PMS_P2;Temp;Humidity;BMP_temperature;BMP_pressure;BME280_temperature;BME280_humidity;BME280_pressure;Samples;Min_cycle;Max_cycle;Signal;HPM_P1;HPM_P2
2022/05/28 00:01:06;;;;;;;11.38;2.47;;;10.00;99.90;;;-144.05;61.16;125687.94;4976148;28;20264;-85
2022/05/28 00:03:34;;;;;;;9.82;2.15;;;9.90;99.90;;;-144.05;61.50;125687.94;4976007;28;20035;-84
2022/05/28 00:06:01;;;;;;;12.20;1.77;;;9.80;99.90;;;-144.05;61.58;125687.94;4975569;28;20488;-84
2022/05/28 00:08:28;;;;;;;10.77;2.05;;;9.90;99.90;;;-144.05;61.92;125687.94;4975698;28;20034;-84
2022/05/28 00:10:58;;;;;;;9.23;2.10;;;9.80;99.90;;;-144.05;62.04;125687.94;4991905;28;20027;-86
2022/05/28 00:13:25;;;;;;;7.80;1.90;;;9.80;99.90;;;-144.05;62.08;125687.94;4975689;28;20041;-85
2022/05/28 00:15:52;;;;;;;9.73;3.03;;;9.90;99.90;;;-144.05;62.13;125687.94;4975244;28;20035;-86
2022/05/28 00:18:18;;;;;;;9.88;1.95;;;9.80;99.90;;;-144.05;62.31;125687.94;4975530;28;20041;-84
2022/05/28 00:20:45;;;;;;;14.60;2.67;;;9.80;99.90;;;-144.05;62.26;125687.94;4991722;28;20122;-86
2022/05/28 00:23:13;;;;;;;10.85;2.22;;;9.90;99.90;;;-144.05;62.47;125687.94;4975524;28;20031;-85
2022/05/28 00:25:39;;;;;;;6.75;1.90;;;9.90;99.90;;;-144.05;62.47;125687.94;4975349;28;20031;-86
2022/05/28 00:28:05;;;;;;;11.88;2.53;;;9.80;99.90;;;-144.05;62.51;125687.94;4991588;28;20037;-86
2022/05/28 00:30:30;;;;;;;9.25;2.10;;;9.80;99.90;;;-144.05;62.48;125687.94;4991573;28;20134;-84
2022/05/28 00:32:56;;;;;;;12.35;2.40;;;9.80;99.90;;;-144.05;62.48;125687.94;4975881;28;20050;-85
2022/05/28 00:35:22;;;;;;;8.07;2.17;;;9.90;99.90;;;-144.05;62.72;125687.94;4976219;28;20041;-87
2022/05/28 00:37:49;;;;;;;12.98;2.92;;;9.80;99.90;;;-144.05;62.69;125687.94;4976201;28;20030;-88
2022/05/28 00:40:26;;;;;;;18.20;2.30;;;9.80;99.90;;;-144.05;62.50;125687.94;4976554;28;20033;-87
2022/05/28 00:42:58;;;;;;;11.70;2.70;;;9.80;99.90;;;-144.05;62.96;125687.94;4976989;28;20253;-87
2022/05/28 00:45:24;;;;;;;7.97;2.70;;;9.80;99.90;;;-144.05;62.83;125687.94;4992713;28;20023;-89
2022/05/28 00:47:57;;;;;;;9.98;2.10;;;9.80;99.90;;;-144.05;63.06;125687.94;4977385;28;20068;-86
2022/05/28 00:50:25;;;;;;;11.45;2.63;;;9.80;99.90;;;-144.05;63.08;125687.94;4991002;28;20364;-84
2022/05/28 00:52:53;;;;;;;9.52;2.20;;;9.80;99.90;;;-144.05;63.20;125687.94;4975244;28;20035;-83
2022/05/28 00:55:19;;;;;;;15.07;3.03;;;9.70;99.90;;;-144.05;63.34;125687.94;4974461;28;20038;-85
2022/05/28 00:57:47;;;;;;;15.48;2.33;;;9.70;99.90;;;-144.05;63.32;125687.94;4975695;28;20038;-84
2022/05/28 01:00:22;;;;;;;12.35;2.53;;;9.70;99.90;;;-144.05;63.30;125687.94;4974029;28;20034;-85
2022/05/28 01:03:37;;;;;;;12.48;2.35;;;9.70;99.90;;;-144.05;63.17;125687.94;4974587;28;20454;-85
2022/05/28 01:06:52;;;;;;;11.43;2.35;;;9.70;99.90;;;-144.05;63.30;125687.94;4974449;28;20035;-87
2022/05/28 01:10:21;;;;;;;9.93;2.58;;;9.70;99.90;;;-144.05;63.45;125687.94;4973913;28;20046;-82
2022/05/28 01:12:57;;;;;;;15.40;2.65;;;9.70;99.90;;;-144.05;63.63;125687.94;4978975;28;20511;-86
2022/05/28 01:15:39;;;;;;;11.77;2.15;;;9.70;99.90;;;-144.05;63.54;125687.94;5006892;28;20054;-86
2022/05/28 01:18:20;;;;;;;8.93;1.73;;;9.70;99.90;;;-144.05;63.47;125687.94;4991925;28;20045;-87
2022/05/28 01:21:00;;;;;;;10.15;2.13;;;9.60;99.90;;;-144.05;63.76;125687.94;5007912;28;20031;-84
2022/05/28 01:24:04;;;;;;;14.45;2.58;;;9.70;99.90;;;-144.05;63.79;125687.94;4995086;28;20130;-86
2022/05/28 01:26:56;;;;;;;7.93;2.25;;;9.60;99.90;;;-144.05;63.94;125687.94;4994154;28;20517;-86
2022/05/28 01:29:41;;;;;;;14.70;2.60;;;9.60;99.90;;;-144.05;64.29;125687.94;4992790;28;20101;-84
2022/05/28 01:32:11;;;;;;;9.40;2.22;;;9.60;99.90;;;-144.05;64.32;125687.94;4991553;28;20063;-85
2022/05/28 01:34:41;;;;;;;11.77;2.53;;;9.70;99.90;;;-144.05;64.55;125687.94;4990133;28;20117;-85
2022/05/28 01:37:11;;;;;;;8.85;2.58;;;9.60;99.90;;;-144.05;64.41;125687.94;4991772;28;20114;-86
2022/05/28 01:39:42;;;;;;;13.82;3.22;;;9.50;99.90;;;-144.05;64.83;125687.94;5004530;28;20061;-86
2022/05/28 01:42:10;;;;;;;12.20;3.05;;;9.60;99.90;;;-144.05;64.79;125687.94;4987663;28;20027;-87
2022/05/28 01:44:42;;;;;;;11.95;2.80;;;9.50;99.90;;;-144.05;65.37;125687.94;4982339;28;20023;-88
2022/05/28 01:47:13;;;;;;;10.85;3.13;;;9.50;99.90;;;-144.05;65.44;125687.94;4986359;28;20027;-88
2022/05/28 01:49:42;;;;;;;11.40;2.85;;;9.40;99.90;;;-144.05;65.45;125687.94;4988141;28;20035;-85
2022/05/28 01:52:12;;;;;;;10.27;2.40;;;9.40;99.90;;;-144.05;66.02;125687.94;4996952;28;20035;-82
2022/05/28 01:54:45;;;;;;;11.10;2.38;;;9.30;99.90;;;-144.05;66.51;125687.94;4999815;28;20046;-84
2022/05/28 01:57:14;;;;;;;10.07;2.08;;;9.30;99.90;;;-144.05;66.53;125687.94;4992682;28;20125;-84
2022/05/28 01:59:43;;;;;;;13.02;2.15;;;9.20;99.90;;;-144.05;66.72;125687.94;4991580;28;20038;-85
2022/05/28 02:02:14;;;;;;;11.65;2.55;;;9.20;99.90;;;-144.05;66.83;125687.94;4990820;28;20522;-85
2022/05/28 02:04:46;;;;;;;15.75;2.38;;;9.20;99.90;;;-144.05;66.85;125687.94;4996996;28;20035;-84
2022/05/28 02:07:13;;;;;;;8.35;2.58;;;9.20;99.90;;;-144.05;67.42;125687.94;5002808;28;20027;-86
2022/05/28 02:09:58;;;;;;;13.65;3.20;;;9.20;99.90;;;-144.05;67.74;125687.94;5005388;28;20030;-84
2022/05/28 02:12:30;;;;;;;12.05;2.47;;;9.10;99.90;;;-144.05;67.68;125687.94;4984253;28;20032;-85
2022/05/28 02:15:25;;;;;;;11.82;2.70;;;9.10;99.90;;;-144.05;68.04;125687.94;4968283;28;20027;-85
2022/05/28 02:18:27;;;;;;;13.55;2.80;;;9.10;99.90;;;-144.05;68.10;125687.94;4967617;28;20027;-86
2022/05/28 02:21:14;;;;;;;15.85;3.10;;;9.10;99.90;;;-144.05;68.08;125687.94;4961901;28;20071;-87
2022/05/28 02:24:05;;;;;;;9.95;2.33;;;9.10;99.90;;;-144.05;67.54;125687.94;4956292;28;20110;-86
2022/05/28 02:26:47;;;;;;;14.57;3.30;;;9.10;99.90;;;-144.05;67.95;125687.94;4955320;28;20316;-85
2022/05/28 02:29:15;;;;;;;8.70;2.58;;;9.10;99.90;;;-144.05;67.73;125687.94;4954692;28;20038;-85
2022/05/28 02:31:49;;;;;;;11.88;2.65;;;9.10;99.90;;;-144.05;67.65;125687.94;4955830;28;20027;-85
2022/05/28 02:34:18;;;;;;;8.80;2.35;;;9.20;99.90;;;-144.05;68.13;125687.94;4955459;28;20035;-86
2022/05/28 02:36:45;;;;;;;10.05;2.40;;;9.10;99.90;;;-144.05;68.09;125687.94;4956176;28;20035;-84
2022/05/28 02:39:12;;;;;;;13.57;2.88;;;9.10;99.90;;;-144.05;68.54;125687.94;4956723;28;20035;-84
2022/05/28 02:41:39;;;;;;;10.65;2.65;;;9.10;99.90;;;-144.05;68.59;125687.94;4957205;28;20031;-85
2022/05/28 02:44:06;;;;;;;8.60;2.50;;;9.10;99.90;;;-144.05;69.13;125687.94;4954701;28;20112;-85
2022/05/28 02:46:32;;;;;;;13.02;2.63;;;9.00;99.90;;;-144.05;69.41;125687.94;4954381;28;20062;-83
2022/05/28 02:48:59;;;;;;;9.40;2.92;;;9.20;99.90;;;-144.05;68.91;125687.94;4954786;28;20023;-84
2022/05/28 02:51:25;;;;;;;8.40;2.50;;;9.20;99.90;;;-144.05;68.88;125687.94;4954180;28;20071;-86
2022/05/28 02:53:54;;;;;;;10.57;2.90;;;9.20;99.90;;;-144.05;69.01;125687.94;4954307;28;20102;-86
2022/05/28 02:56:22;;;;;;;10.60;2.97;;;9.20;99.90;;;-144.05;69.55;125687.94;4953717;28;20031;-87
2022/05/28 02:58:48;;;;;;;17.20;2.20;;;9.10;99.90;;;-144.05;69.28;125687.94;4953789;28;20472;-86
2022/05/28 03:01:33;;;;;;;10.68;2.85;;;9.20;99.90;;;-144.05;69.26;125687.94;4954776;28;20065;-85
2022/05/28 03:04:00;;;;;;;10.35;2.72;;;9.30;99.90;;;-144.05;68.76;125687.94;4955102;28;20063;-83
2022/05/28 03:06:27;;;;;;;10.82;2.80;;;9.30;99.90;;;-144.05;68.86;125687.94;4955992;28;20060;-86
2022/05/28 03:08:53;;;;;;;12.02;2.80;;;9.40;99.90;;;-144.05;68.32;125687.94;4956013;28;20038;-87
2022/05/28 03:11:21;;;;;;;11.20;2.65;;;9.50;99.90;;;-144.05;67.73;125687.94;4967541;28;20065;-88
2022/05/28 03:13:47;;;;;;;11.35;3.00;;;9.70;99.90;;;-144.05;67.60;125687.94;4975707;28;20123;-87
2022/05/28 03:16:14;;;;;;;11.82;2.67;;;9.80;99.90;;;-144.05;67.24;125687.94;4976726;28;20031;-85
2022/05/28 03:18:40;;;;;;;10.70;2.92;;;9.80;99.90;;;-144.05;67.15;125687.94;4976762;28;20036;-84
2022/05/28 03:21:09;;;;;;;12.00;3.50;;;9.90;99.90;;;-144.05;66.74;125687.94;4992486;28;20027;-86
2022/05/28 03:23:35;;;;;;;9.40;3.10;;;10.00;99.90;;;-144.05;66.79;125687.94;4994323;28;20031;-86
2022/05/28 03:26:34;;;;;;;16.55;2.92;;;10.00;99.90;;;-144.05;66.50;125687.94;4994605;28;20033;-87
2022/05/28 03:29:01;;;;;;;10.18;2.88;;;10.10;99.90;;;-144.05;66.69;125687.94;4984132;28;20042;-86
2022/05/28 03:31:29;;;;;;;9.88;3.00;;;10.00;99.90;;;-144.05;66.75;125687.94;4982412;28;20509;-86
2022/05/28 03:33:57;;;;;;;9.93;2.92;;;9.90;99.90;;;-144.05;66.83;125687.94;4978730;28;20054;-86
2022/05/28 03:36:26;;;;;;;11.10;2.70;;;9.90;99.90;;;-144.05;67.60;125687.94;4977690;28;20031;-86
2022/05/28 03:38:52;;;;;;;11.70;3.05;;;9.90;99.90;;;-144.05;67.38;125687.94;4978315;28;20050;-87
2022/05/28 03:41:19;;;;;;;15.52;3.40;;;9.80;99.90;;;-144.05;68.10;125687.94;4977974;28;20041;-84
2022/05/28 03:43:45;;;;;;;14.63;3.42;;;9.80;99.90;;;-144.05;68.36;125687.94;4977977;28;20479;-84
2022/05/28 03:46:27;;;;;;;11.90;2.50;;;9.80;99.90;;;-144.05;68.54;125687.94;4977637;28;20035;-86
2022/05/28 03:49:08;;;;;;;19.58;4.00;;;9.70;99.90;;;-144.05;68.70;125687.94;4977678;28;20061;-87
2022/05/28 03:51:35;;;;;;;13.45;3.22;;;9.80;99.90;;;-144.05;68.78;125687.94;4977401;28;20042;-84
2022/05/28 03:54:02;;;;;;;14.07;3.20;;;10.00;99.90;;;-144.05;68.62;125687.94;4977369;28;20547;-86
2022/05/28 03:56:38;;;;;;;12.23;3.42;;;10.10;99.90;;;-144.05;67.79;125687.94;4993066;28;20387;-87
2022/05/28 03:59:06;;;;;;;12.95;2.70;;;10.30;99.90;;;-144.05;67.09;125687.94;5013761;28;20030;-85
2022/05/28 04:01:33;;;;;;;12.52;2.78;;;10.50;99.90;;;-144.05;66.21;125687.94;4987936;28;20039;-85
2022/05/28 04:04:01;;;;;;;13.20;3.33;;;10.60;99.90;;;-144.05;65.72;125687.94;4978985;28;20041;-87
2022/05/28 04:06:29;;;;;;;9.63;2.58;;;10.70;99.90;;;-144.05;65.35;125687.94;4977712;28;20085;-84
2022/05/28 04:08:55;;;;;;;8.95;2.70;;;10.80;99.90;;;-144.05;65.59;125687.94;4977013;28;20026;-85
2022/05/28 04:11:22;;;;;;;13.70;3.45;;;10.90;99.90;;;-144.05;65.65;125687.94;4977606;28;20031;-86
2022/05/28 04:13:48;;;;;;;15.70;3.15;;;10.90;99.90;;;-144.05;65.09;125687.94;4977453;28;20041;-87
2022/05/28 04:16:15;;;;;;;16.17;4.22;;;10.90;99.90;;;-144.05;65.62;125687.94;4993999;28;20030;-86
2022/05/28 04:18:41;;;;;;;17.73;3.63;;;11.00;99.90;;;-144.05;65.48;125687.94;4977498;28;20030;-85
2022/05/28 04:21:08;;;;;;;15.32;3.63;;;11.00;99.90;;;-144.05;65.88;125687.94;4993528;28;20050;-89
2022/05/28 04:23:34;;;;;;;11.27;2.80;;;11.00;99.90;;;-144.05;65.37;125687.94;4977849;28;20027;-87
2022/05/28 04:26:00;;;;;;;13.32;3.30;;;11.10;99.90;;;-144.05;65.48;125687.94;4977108;28;20069;-86
2022/05/28 04:28:27;;;;;;;13.90;3.67;;;11.20;99.90;;;-144.05;65.29;125687.94;4976824;28;20090;-85
2022/05/28 04:30:53;;;;;;;15.15;3.33;;;11.10;99.90;;;-144.05;65.79;125687.94;4993235;28;20065;-87
2022/05/28 04:33:19;;;;;;;11.15;3.25;;;11.10;99.90;;;-144.05;65.89;125687.94;4977033;28;20395;-87
2022/05/28 04:35:45;;;;;;;11.63;3.20;;;11.00;99.90;;;-144.05;66.19;125687.94;4977431;28;20097;-85
2022/05/28 04:38:11;;;;;;;11.60;3.17;;;10.90;99.90;;;-144.05;66.47;125687.94;4977818;28;20149;-87
2022/05/28 04:40:37;;;;;;;11.20;2.45;;;10.90;99.90;;;-144.05;66.62;125687.94;4977552;28;20034;-88
2022/05/28 04:43:03;;;;;;;12.88;2.75;;;10.90;99.90;;;-144.05;66.33;125687.94;4976727;28;20031;-88
2022/05/28 04:45:29;;;;;;;12.15;2.50;;;11.10;99.90;;;-144.05;66.11;125687.94;4978509;28;20027;-87
2022/05/28 04:47:55;;;;;;;10.10;2.28;;;11.20;99.90;;;-144.05;65.34;125687.94;4978361;28;20091;-84
2022/05/28 04:50:22;;;;;;;13.40;3.20;;;11.30;99.90;;;-144.05;64.66;125687.94;4994455;28;20038;-86
2022/05/28 04:52:48;;;;;;;9.63;3.00;;;11.30;99.90;;;-144.05;65.08;125687.94;4994495;28;20081;-86
2022/05/28 04:55:14;;;;;;;8.57;2.20;;;11.30;99.90;;;-144.05;65.12;125687.94;4977779;28;20030;-85
2022/05/28 04:57:41;;;;;;;10.80;2.55;;;11.40;99.90;;;-144.05;65.01;125687.94;4977563;28;20082;-87
2022/05/28 05:00:19;;;;;;;9.50;2.63;;;11.50;99.90;;;-144.05;63.96;125687.94;4979465;28;20415;-86
2022/05/28 05:02:46;;;;;;;10.48;2.45;;;11.60;99.90;;;-144.05;63.90;125687.94;4978904;28;20031;-87
2022/05/28 05:05:11;;;;;;;9.85;2.47;;;11.60;99.90;;;-144.05;64.09;125687.94;4978109;28;20035;-87
2022/05/28 05:07:37;;;;;;;7.75;2.42;;;11.60;99.90;;;-144.05;63.91;125687.94;4977585;28;20027;-87
2022/05/28 05:10:05;;;;;;;8.52;2.42;;;11.60;99.90;;;-144.05;63.41;125687.94;4977765;28;20053;-86
2022/05/28 05:12:33;;;;;;;10.65;2.97;;;11.80;99.90;;;-144.05;62.41;125687.94;4977348;28;20372;-85
2022/05/28 05:14:59;;;;;;;8.48;2.35;;;12.10;99.90;;;-144.05;61.03;125687.94;4976802;28;20467;-87
2022/05/28 05:17:27;;;;;;;9.95;2.00;;;12.30;99.90;;;-144.05;60.21;125687.94;4977774;28;20066;-88
2022/05/28 05:19:54;;;;;;;9.82;2.38;;;12.50;99.90;;;-144.05;60.00;125687.94;4977305;28;20035;-86
2022/05/28 05:22:21;;;;;;;8.18;3.10;;;12.40;99.90;;;-144.05;60.60;125687.94;4976945;28;20027;-88
2022/05/28 05:24:47;;;;;;;8.27;2.25;;;12.30;99.90;;;-144.05;61.30;125687.94;4977560;28;20027;-88
2022/05/28 05:27:13;;;;;;;7.65;2.10;;;12.20;99.90;;;-144.05;62.02;125687.94;4977700;28;20126;-86
2022/05/28 05:29:40;;;;;;;8.52;2.15;;;12.10;99.90;;;-144.05;61.67;125687.94;4978680;28;20027;-89
2022/05/28 05:32:07;;;;;;;12.82;2.92;;;12.10;99.90;;;-144.05;61.67;125687.94;4995531;28;20038;-89
2022/05/28 05:34:33;;;;;;;5.15;1.80;;;12.10;99.90;;;-144.05;61.55;125687.94;4980041;28;20031;-90
2022/05/28 05:36:59;;;;;;;11.70;1.95;;;12.20;99.90;;;-144.05;60.71;125687.94;4979823;28;20041;-85
2022/05/28 05:39:25;;;;;;;10.40;2.33;;;12.20;99.90;;;-144.05;60.60;125687.94;4980822;28;20062;-88
2022/05/28 05:41:52;;;;;;;7.40;2.42;;;12.40;99.90;;;-144.05;59.87;125687.94;4982705;28;20026;-89
2022/05/28 05:44:18;;;;;;;4.47;1.83;;;12.40;99.90;;;-144.05;59.92;125687.94;4997411;28;20041;-87
2022/05/28 05:46:44;;;;;;;7.50;1.95;;;12.50;99.90;;;-144.05;59.45;125687.94;4976153;28;20031;-86
2022/05/28 05:49:11;;;;;;;12.85;2.08;;;12.50;99.90;;;-144.05;58.52;125687.94;4977398;28;20046;-88
2022/05/28 05:51:46;;;;;;;9.90;2.22;;;12.90;99.90;;;-144.05;56.80;125687.94;4978761;28;20053;-86
2022/05/28 05:54:15;;;;;;;9.27;2.23;;;13.10;99.90;;;-144.05;55.73;125687.94;4978564;28;20056;-86
2022/05/28 05:56:41;;;;;;;13.77;2.20;;;13.20;99.90;;;-144.05;54.32;125687.94;4994092;28;20074;-88
2022/05/28 05:59:11;;;;;;;6.80;2.33;;;13.40;99.90;;;-144.05;54.51;125687.94;4977616;28;20034;-84
2022/05/28 06:01:38;;;;;;;11.32;2.05;;;13.50;99.90;;;-144.05;51.98;125687.94;4993559;28;20031;-87
2022/05/28 06:04:08;;;;;;;10.60;1.60;;;13.60;99.90;;;-144.05;51.64;125687.94;4980530;28;20042;-85
2022/05/28 06:06:35;;;;;;;8.55;2.08;;;14.00;99.90;;;-144.05;49.73;125687.94;5013121;28;20084;-85
2022/05/28 06:09:03;;;;;;;8.02;2.10;;;14.50;99.90;;;-144.05;47.29;125687.94;4988624;28;20108;-86
2022/05/28 06:11:29;;;;;;;7.35;1.33;;;14.70;99.90;;;-144.05;46.45;125687.94;4978317;28;20061;-86
2022/05/28 06:13:55;;;;;;;4.20;1.10;;;14.90;99.90;;;-144.05;46.17;125687.94;4993795;28;20090;-86
2022/05/28 06:16:23;;;;;;;7.95;1.90;;;15.30;99.90;;;-144.05;44.89;125687.94;4993935;28;20026;-87
2022/05/28 06:18:49;;;;;;;5.22;1.30;;;15.50;99.90;;;-144.05;43.65;125687.94;4992727;28;20113;-85
2022/05/28 06:21:15;;;;;;;5.78;1.45;;;16.00;99.90;;;-144.05;44.16;125687.94;4993497;28;20034;-86
2022/05/28 06:23:45;;;;;;;7.53;1.48;;;15.90;99.90;;;-144.05;43.81;125687.94;4977510;28;20034;-86
2022/05/28 06:26:12;;;;;;;4.50;1.55;;;15.90;99.90;;;-144.05;43.58;125687.94;4992552;28;20043;-84
2022/05/28 06:28:41;;;;;;;6.00;1.15;;;15.80;99.90;;;-144.05;43.82;125687.94;4975254;28;20023;-85
2022/05/28 06:31:14;;;;;;;5.90;0.93;;;15.70;99.90;;;-144.05;43.82;125687.94;4975460;28;20030;-86
2022/05/28 06:33:42;;;;;;;8.15;1.40;;;15.60;99.90;;;-144.05;42.88;125687.94;4975828;28;20027;-86
2022/05/28 06:36:12;;;;;;;5.32;1.52;;;15.90;99.90;;;-144.05;42.50;125687.94;4975636;28;20030;-88
2022/05/28 06:38:39;;;;;;;4.80;1.60;;;15.90;99.90;;;-144.05;42.55;125687.94;4975475;28;20031;-87
2022/05/28 06:41:07;;;;;;;10.63;1.77;;;16.00;99.90;;;-144.05;42.29;125687.94;4975524;28;20121;-89
2022/05/28 06:43:34;;;;;;;4.13;1.20;;;16.10;99.90;;;-144.05;41.93;125687.94;4977491;28;20176;-88
2022/05/28 06:46:09;;;;;;;6.85;1.30;;;16.00;99.90;;;-144.05;41.66;125687.94;4975440;28;20073;-87
2022/05/28 06:48:38;;;;;;;8.35;1.20;;;15.90;99.90;;;-144.05;42.07;125687.94;4975966;28;20551;-86
2022/05/28 06:51:06;;;;;;;3.42;0.93;;;15.80;99.90;;;-144.05;41.49;125687.94;4992084;28;20046;-87
2022/05/28 06:53:48;;;;;;;8.50;1.55;;;15.50;99.90;;;-144.05;43.06;125687.94;4976650;28;20050;-87
2022/05/28 06:56:18;;;;;;;4.40;1.10;;;15.00;99.90;;;-144.05;43.73;125687.94;4976396;28;20142;-87
2022/05/28 06:58:46;;;;;;;3.85;1.10;;;14.70;99.90;;;-144.05;44.25;125687.94;4978470;28;20038;-88
2022/05/28 07:01:16;;;;;;;6.32;1.23;;;14.50;99.90;;;-144.05;44.51;125687.94;4979521;28;20037;-89
2022/05/28 07:03:43;;;;;;;7.50;1.23;;;14.80;99.90;;;-144.05;42.58;125687.94;4995900;28;20066;-86
2022/05/28 07:06:12;;;;;;;6.07;1.10;;;15.00;99.90;;;-144.05;40.75;125687.94;4995815;28;20042;-84
2022/05/28 07:08:38;;;;;;;3.45;1.17;;;15.70;99.90;;;-144.05;39.60;125687.94;4979790;28;20034;-86
2022/05/28 07:11:07;;;;;;;3.72;0.90;;;16.40;99.90;;;-144.05;38.17;125687.94;4980041;28;20037;-88
2022/05/28 07:13:35;;;;;;;4.75;1.25;;;17.20;96.50;;;-144.05;37.35;125687.94;4979548;28;20049;-88
2022/05/28 07:16:05;;;;;;;5.43;1.17;;;17.60;92.00;;;-144.05;36.37;125687.94;4979244;28;20097;-85
2022/05/28 07:18:37;;;;;;;5.85;1.23;;;18.10;89.10;;;-144.05;35.97;125687.94;4979308;28;20049;-88
2022/05/28 07:21:05;;;;;;;6.90;1.40;;;18.60;86.50;;;-144.05;36.04;125687.94;4979033;28;20034;-86
2022/05/28 07:23:33;;;;;;;3.20;0.90;;;18.20;82.20;;;-144.05;37.01;125687.94;4978687;28;20030;-88
2022/05/28 07:26:09;;;;;;;5.13;1.08;;;18.00;85.60;;;-144.05;38.62;125687.94;4978734;28;20383;-89
2022/05/28 07:28:39;;;;;;;4.63;1.25;;;17.80;90.90;;;-144.05;38.67;125687.94;4994602;28;20034;-88
2022/05/28 07:31:15;;;;;;;8.35;1.17;;;17.30;92.50;;;-144.05;39.60;125687.94;4994310;28;20501;-88
2022/05/28 07:33:46;;;;;;;7.90;1.48;;;16.40;93.60;;;-144.05;40.67;125687.94;4978390;28;20077;-87
2022/05/28 07:36:21;;;;;;;4.45;1.10;;;15.80;97.60;;;-144.05;41.35;125687.94;4979013;28;20487;-88
2022/05/28 07:38:51;;;;;;;6.75;1.17;;;15.50;99.90;;;-144.05;40.76;125687.94;4980366;28;20026;-88
2022/05/28 07:41:25;;;;;;;7.65;1.17;;;15.20;99.90;;;-144.05;39.87;125687.94;4995948;28;20040;-89
2022/05/28 07:44:01;;;;;;;5.28;0.90;;;15.60;98.70;;;-144.05;38.50;125687.94;4979290;28;20035;-88
2022/05/28 07:46:32;;;;;;;7.97;1.20;;;16.20;94.30;;;-144.05;37.32;125687.94;4997289;28;20027;-88
2022/05/28 07:49:03;;;;;;;5.93;1.08;;;17.20;92.20;;;-144.05;35.15;125687.94;4995333;28;20030;-85
2022/05/28 07:51:33;;;;;;;7.65;1.38;;;17.80;82.20;;;-144.05;34.44;125687.94;4995815;28;20035;-89
2022/05/28 07:54:00;;;;;;;3.08;1.00;;;18.20;78.20;;;-144.05;34.90;125687.94;4979507;28;20033;-84
2022/05/28 07:56:27;;;;;;;4.57;1.00;;;18.20;77.40;;;-144.05;34.98;125687.94;4980649;28;20031;-86
2022/05/28 07:58:59;;;;;;;4.75;1.15;;;18.40;77.20;;;-144.05;33.87;125687.94;4979014;28;20031;-86
2022/05/28 08:01:31;;;;;;;5.03;1.38;;;18.70;74.50;;;-144.05;33.16;125687.94;4995897;28;20035;-88
2022/05/28 08:03:59;;;;;;;7.75;1.27;;;18.80;70.70;;;-144.05;33.54;125687.94;4994771;28;20380;-87
2022/05/28 08:06:31;;;;;;;5.72;1.30;;;18.90;71.60;;;-144.05;32.96;125687.94;4980946;28;20027;-86
2022/05/28 08:09:02;;;;;;;11.10;1.38;;;19.30;70.30;;;-144.05;32.49;125687.94;4995318;28;20042;-85
2022/05/28 08:11:31;;;;;;;4.95;1.23;;;19.40;66.90;;;-144.05;32.45;125687.94;4985826;28;20027;-85
2022/05/28 08:14:00;;;;;;;6.45;1.35;;;19.20;66.30;;;-144.05;33.09;125687.94;5014577;28;20059;-85
2022/05/28 08:16:26;;;;;;;3.40;1.05;;;19.10;67.90;;;-144.05;34.16;125687.94;4988370;28;20066;-88
2022/05/28 08:18:52;;;;;;;4.05;1.20;;;18.30;69.00;;;-144.05;34.05;125687.94;4978093;28;20037;-86
2022/05/28 08:24:24;;;;;;;3.08;0.90;;;17.40;71.30;;;-144.05;34.24;125687.94;4981225;28;20086;-86
2022/05/28 08:26:58;;;;;;;6.65;1.25;;;17.30;70.40;;;-144.05;33.12;125687.94;4978602;28;20023;-87
2022/05/28 08:29:43;;;;;;;;;;;;;;;;;;;;;
2022/05/28 08:32:26;;;;;;;3.85;1.15;;;18.20;69.20;;;-144.05;32.73;125687.94;4979991;28;20113;-90
2022/05/28 08:35:04;;;;;;;4.20;0.90;;;19.00;68.80;;;-144.05;30.44;125687.94;4979459;28;20041;-85
2022/05/28 08:37:35;;;;;;;5.13;1.17;;;19.50;61.80;;;-144.05;30.44;125687.94;4979941;28;20066;-88
2022/05/28 08:40:23;;;;;;;3.50;1.27;;;19.60;60.30;;;-144.05;30.42;125687.94;4978887;28;20454;-87
2022/05/28 08:42:54;;;;;;;4.25;1.25;;;19.60;59.80;;;-144.05;30.72;125687.94;4978534;28;20031;-86
2022/05/28 08:45:22;;;;;;;3.10;0.88;;;19.80;61.40;;;-144.05;30.62;125687.94;4994987;28;20105;-88
2022/05/28 08:47:54;;;;;;;3.78;1.23;;;19.90;60.50;;;-144.05;31.22;125687.94;4978434;28;20061;-87
2022/05/28 08:50:21;;;;;;;4.95;1.15;;;19.80;61.80;;;-144.05;31.42;125687.94;4994240;28;20073;-88
2022/05/28 08:53:16;;;;;;;3.22;1.00;;;19.40;60.90;;;-144.05;31.43;125687.94;4976992;28;20030;-88
2022/05/28 08:55:50;;;;;;;3.90;0.90;;;19.60;62.30;;;-144.05;32.25;125687.94;4993124;28;20041;-87
2022/05/28 08:58:26;;;;;;;4.28;0.93;;;19.70;64.30;;;-144.05;31.55;125687.94;4975598;28;20117;-87
2022/05/28 09:01:06;;;;;;;4.97;1.10;;;20.20;63.40;;;-144.05;30.36;125687.94;4993445;28;20035;-88
2022/05/28 09:03:57;;;;;;;3.30;1.00;;;20.50;60.30;;;-144.05;30.92;125687.94;4992180;28;20097;-90
2022/05/28 09:06:46;;;;;;;4.97;1.30;;;20.80;61.60;;;-144.05;30.05;125687.94;4977946;28;20158;-87
2022/05/28 09:09:16;;;;;;;5.35;0.90;;;20.20;57.90;;;-144.05;31.26;125687.94;4976634;28;20484;-88
2022/05/28 09:12:30;;;;;;;8.68;1.40;;;19.60;59.70;;;-144.05;32.75;125687.94;4992701;28;20022;-89
2022/05/28 09:14:56;;;;;;;8.52;1.38;;;18.60;62.40;;;-144.05;33.80;125687.94;4959389;28;20038;-86
2022/05/28 09:17:41;;;;;;;5.90;1.48;;;17.80;65.90;;;-144.05;35.53;125687.94;4977161;28;20026;-85
2022/05/28 09:20:21;;;;;;;6.07;1.50;;;17.40;68.80;;;-144.05;34.19;125687.94;4976579;28;20034;-87
2022/05/28 09:22:49;;;;;;;6.10;1.02;;;17.30;67.50;;;-144.05;34.35;125687.94;4993716;28;20051;-86
2022/05/28 09:25:23;;;;;;;4.68;1.40;;;17.10;67.10;;;-144.05;34.74;125687.94;4976237;28;20034;-87
2022/05/28 09:29:00;;;;;;;5.32;1.38;;;17.00;67.70;;;-144.05;34.59;125687.94;4977665;28;20023;-89
2022/05/28 09:32:28;;;;;;;5.65;1.38;;;16.70;67.60;;;-144.05;33.61;125687.94;4976754;28;20026;-88
2022/05/28 09:35:20;;;;;;;3.58;0.85;;;17.70;65.20;;;-144.05;32.78;125687.94;4992934;28;20034;-85
2022/05/28 09:38:20;;;;;;;4.50;1.17;;;18.10;63.50;;;-144.05;32.18;125687.94;4976239;28;20427;-85
2022/05/28 09:41:37;;;;;;;2.25;0.90;;;18.90;66.50;;;-144.05;30.82;125687.94;4994198;28;20034;-88
2022/05/28 09:44:42;;;;;;;6.00;0.80;;;18.90;60.10;;;-144.05;31.22;125687.94;4973815;28;20511;-88
2022/05/28 09:47:19;;;;;;;5.50;1.00;;;18.80;59.70;;;-144.05;31.16;125687.94;5001292;28;20098;-88
2022/05/28 09:49:57;;;;;;;8.27;1.15;;;18.80;59.70;;;-144.05;31.30;125687.94;4988373;28;20045;-88
2022/05/28 09:54:16;;;;;;;4.45;0.95;;;18.90;60.80;;;-144.05;32.33;125687.94;4988799;28;20034;-89
2022/05/28 09:55:24;;;;;;;5.30;1.05;;;18.50;62.10;;;-144.05;33.57;125687.94;4989078;28;20030;-88
2022/05/28 09:58:05;;;;;;;5.72;1.42;;;17.80;64.20;;;-144.05;34.53;125687.94;4984103;28;20077;-88
2022/05/28 10:00:32;;;;;;;5.45;1.00;;;17.30;67.30;;;-144.05;35.24;125687.94;4981571;28;20464;-85
2022/05/28 10:05:58;;;;;;;7.10;1.40;;;16.70;70.70;;;-144.05;36.89;125687.94;4978369;28;20038;-87
2022/05/28 10:08:32;;;;;;;9.25;1.30;;;16.70;74.10;;;-144.05;34.97;125687.94;4978782;28;20038;-86
2022/05/28 10:11:06;;;;;;;4.72;1.63;;;17.70;70.30;;;-144.05;33.87;125687.94;4986521;28;20030;-87
2022/05/28 10:14:03;;;;;;;5.10;1.20;;;18.70;68.60;;;-144.05;32.57;125687.94;4986327;28;20069;-89
2022/05/28 10:16:40;;;;;;;;;;;19.50;65.60;;;-144.05;30.39;125687.94;4993988;28;20039;-88
2022/05/28 10:19:38;;;;;;;5.90;1.08;;;20.00;59.30;;;-144.05;30.04;125687.94;4998749;28;19937;-88
2022/05/28 10:22:19;;;;;;;4.63;1.13;;;20.30;59.40;;;-144.05;29.93;125687.94;5009384;28;20042;-88
2022/05/28 10:25:01;;;;;;;4.30;0.98;;;21.30;58.10;;;-144.05;28.70;125687.94;4989724;28;20042;-88
2022/05/28 10:27:48;;;;;;;5.88;1.20;;;21.60;54.70;;;-144.05;29.18;125687.94;4989504;28;20030;-87
2022/05/28 10:30:38;;;;;;;3.45;1.10;;;20.80;54.90;;;-144.05;31.68;125687.94;5000412;28;20443;-88